sensor_id;sensor_type;location;lat;lon;timestamp;P1;durP1;ratioP1;P2;durP2;ratioP2
43248;SDS011;29216;51.248;6.808;2024-03-06T00:00:55;33.00;;;20.25;;
43248;SDS011;29216;51.248;6.808;2024-03-06T00:03:21;34.22;;;20.13;;
43248;SDS011;29216;51.248;6.808;2024-03-06T00:05:47;32.50;;;20.75;;
43248;SDS011;29216;51.248;6.808;2024-03-06T00:08:13;30.90;;;20.25;;
43248;SDS011;29216;51.248;6.808;2024-03-06T00:10:40;35.97;;;20.25;;
43248;SDS011;29216;51.248;6.808;2024-03-06T00:13:06;32.33;;;20.17;;
43248;SDS011;29216;51.248;6.808;2024-03-06T00:15:32;32.28;;;20.42;;
43248;SDS011;29216;51.248;6.808;2024-03-06T00:17:58;32.00;;;18.73;;
43248;SDS011;29216;51.248;6.808;2024-03-06T00:20:24;28.58;;;19.08;;
43248;SDS011;29216;51.248;6.808;2024-03-06T00:22:50;26.67;;;18.65;;
43248;SDS011;29216;51.248;6.808;2024-03-06T00:25:16;30.33;;;19.88;;
43248;SDS011;29216;51.248;6.808;2024-03-06T00:27:42;32.00;;;18.88;;
43248;SDS011;29216;51.248;6.808;2024-03-06T00:30:09;28.30;;;18.05;;
43248;SDS011;29216;51.248;6.808;2024-03-06T00:32:35;30.13;;;19.60;;
43248;SDS011;29216;51.248;6.808;2024-03-06T00:35:01;29.75;;;19.27;;
43248;SDS011;29216;51.248;6.808;2024-03-06T00:37:28;27.77;;;18.08;;
43248;SDS011;29216;51.248;6.808;2024-03-06T00:39:54;30.35;;;18.10;;
43248;SDS011;29216;51.248;6.808;2024-03-06T00:42:21;26.92;;;18.02;;
43248;SDS011;29216;51.248;6.808;2024-03-06T00:44:47;29.40;;;18.27;;
43248;SDS011;29216;51.248;6.808;2024-03-06T00:47:13;26.25;;;17.75;;
43248;SDS011;29216;51.248;6.808;2024-03-06T00:49:38;28.50;;;18.45;;
43248;SDS011;29216;51.248;6.808;2024-03-06T00:52:08;31.65;;;18.17;;
43248;SDS011;29216;51.248;6.808;2024-03-06T00:54:34;31.50;;;18.52;;
43248;SDS011;29216;51.248;6.808;2024-03-06T00:57:00;28.60;;;17.67;;
43248;SDS011;29216;51.248;6.808;2024-03-06T00:59:26;27.88;;;17.40;;
43248;SDS011;29216;51.248;6.808;2024-03-06T01:01:53;28.55;;;18.73;;
43248;SDS011;29216;51.248;6.808;2024-03-06T01:04:21;30.23;;;19.33;;
43248;SDS011;29216;51.248;6.808;2024-03-06T01:06:47;31.00;;;18.02;;
43248;SDS011;29216;51.248;6.808;2024-03-06T01:09:13;29.90;;;18.88;;
43248;SDS011;29216;51.248;6.808;2024-03-06T01:11:39;37.72;;;21.70;;
43248;SDS011;29216;51.248;6.808;2024-03-06T01:14:05;34.83;;;21.17;;
43248;SDS011;29216;51.248;6.808;2024-03-06T01:16:31;33.17;;;19.48;;
43248;SDS011;29216;51.248;6.808;2024-03-06T01:18:57;31.60;;;20.10;;
43248;SDS011;29216;51.248;6.808;2024-03-06T01:21:23;32.42;;;20.50;;
43248;SDS011;29216;51.248;6.808;2024-03-06T01:23:49;31.77;;;20.70;;
43248;SDS011;29216;51.248;6.808;2024-03-06T01:26:15;31.85;;;20.52;;
43248;SDS011;29216;51.248;6.808;2024-03-06T01:28:41;34.08;;;19.42;;
43248;SDS011;29216;51.248;6.808;2024-03-06T01:31:07;31.05;;;19.17;;
43248;SDS011;29216;51.248;6.808;2024-03-06T01:33:33;31.88;;;18.55;;
43248;SDS011;29216;51.248;6.808;2024-03-06T01:35:59;33.08;;;20.15;;
43248;SDS011;29216;51.248;6.808;2024-03-06T01:38:25;30.08;;;19.35;;
43248;SDS011;29216;51.248;6.808;2024-03-06T01:40:51;31.33;;;21.13;;
43248;SDS011;29216;51.248;6.808;2024-03-06T01:43:18;34.92;;;19.52;;
43248;SDS011;29216;51.248;6.808;2024-03-06T01:45:45;27.63;;;18.77;;
43248;SDS011;29216;51.248;6.808;2024-03-06T01:48:12;32.63;;;20.05;;
43248;SDS011;29216;51.248;6.808;2024-03-06T01:50:39;32.95;;;20.63;;
43248;SDS011;29216;51.248;6.808;2024-03-06T01:53:05;29.60;;;19.27;;
43248;SDS011;29216;51.248;6.808;2024-03-06T01:55:31;26.23;;;18.23;;
43248;SDS011;29216;51.248;6.808;2024-03-06T01:57:57;30.02;;;19.70;;
43248;SDS011;29216;51.248;6.808;2024-03-06T02:00:23;29.30;;;17.98;;
43248;SDS011;29216;51.248;6.808;2024-03-06T02:02:49;28.55;;;18.75;;
43248;SDS011;29216;51.248;6.808;2024-03-06T02:05:15;33.33;;;19.38;;
43248;SDS011;29216;51.248;6.808;2024-03-06T02:07:41;27.83;;;18.02;;
43248;SDS011;29216;51.248;6.808;2024-03-06T02:10:08;27.60;;;18.73;;
43248;SDS011;29216;51.248;6.808;2024-03-06T02:12:35;31.50;;;18.50;;
43248;SDS011;29216;51.248;6.808;2024-03-06T02:15:01;30.10;;;19.83;;
43248;SDS011;29216;51.248;6.808;2024-03-06T02:17:28;27.10;;;18.70;;
43248;SDS011;29216;51.248;6.808;2024-03-06T02:19:55;28.92;;;19.77;;
43248;SDS011;29216;51.248;6.808;2024-03-06T02:22:23;29.52;;;18.92;;
43248;SDS011;29216;51.248;6.808;2024-03-06T02:24:49;29.10;;;18.33;;
43248;SDS011;29216;51.248;6.808;2024-03-06T02:27:15;28.65;;;17.75;;
43248;SDS011;29216;51.248;6.808;2024-03-06T02:29:41;31.40;;;18.52;;
43248;SDS011;29216;51.248;6.808;2024-03-06T02:32:08;27.08;;;18.45;;
43248;SDS011;29216;51.248;6.808;2024-03-06T02:34:34;32.25;;;19.23;;
43248;SDS011;29216;51.248;6.808;2024-03-06T02:37:00;28.33;;;17.88;;
43248;SDS011;29216;51.248;6.808;2024-03-06T02:39:26;27.67;;;18.45;;
43248;SDS011;29216;51.248;6.808;2024-03-06T02:41:52;26.80;;;17.85;;
43248;SDS011;29216;51.248;6.808;2024-03-06T02:44:18;26.88;;;18.15;;
43248;SDS011;29216;51.248;6.808;2024-03-06T02:46:48;28.73;;;17.25;;
43248;SDS011;29216;51.248;6.808;2024-03-06T02:49:15;25.52;;;17.15;;
43248;SDS011;29216;51.248;6.808;2024-03-06T02:51:41;26.85;;;17.08;;
43248;SDS011;29216;51.248;6.808;2024-03-06T02:54:07;26.80;;;17.60;;
43248;SDS011;29216;51.248;6.808;2024-03-06T02:56:33;29.35;;;17.95;;
43248;SDS011;29216;51.248;6.808;2024-03-06T02:58:59;30.95;;;19.17;;
43248;SDS011;29216;51.248;6.808;2024-03-06T03:01:27;28.38;;;18.23;;
43248;SDS011;29216;51.248;6.808;2024-03-06T03:03:54;27.85;;;18.13;;
43248;SDS011;29216;51.248;6.808;2024-03-06T03:06:20;31.60;;;18.10;;
43248;SDS011;29216;51.248;6.808;2024-03-06T03:08:49;31.55;;;18.63;;
43248;SDS011;29216;51.248;6.808;2024-03-06T03:11:14;26.50;;;17.45;;
43248;SDS011;29216;51.248;6.808;2024-03-06T03:13:41;31.13;;;18.10;;
43248;SDS011;29216;51.248;6.808;2024-03-06T03:16:15;31.85;;;18.63;;
43248;SDS011;29216;51.248;6.808;2024-03-06T03:18:42;29.38;;;18.25;;
43248;SDS011;29216;51.248;6.808;2024-03-06T03:21:09;29.13;;;18.85;;
43248;SDS011;29216;51.248;6.808;2024-03-06T03:23:38;31.98;;;18.60;;
43248;SDS011;29216;51.248;6.808;2024-03-06T03:26:05;29.00;;;19.05;;
43248;SDS011;29216;51.248;6.808;2024-03-06T03:28:31;26.40;;;18.50;;
43248;SDS011;29216;51.248;6.808;2024-03-06T03:30:57;30.05;;;18.90;;
43248;SDS011;29216;51.248;6.808;2024-03-06T03:33:23;28.88;;;18.00;;
43248;SDS011;29216;51.248;6.808;2024-03-06T03:35:49;31.77;;;19.38;;
43248;SDS011;29216;51.248;6.808;2024-03-06T03:38:16;29.95;;;19.23;;
43248;SDS011;29216;51.248;6.808;2024-03-06T03:40:42;27.48;;;17.25;;
43248;SDS011;29216;51.248;6.808;2024-03-06T03:43:08;26.17;;;16.83;;
43248;SDS011;29216;51.248;6.808;2024-03-06T03:45:34;30.00;;;18.23;;
43248;SDS011;29216;51.248;6.808;2024-03-06T03:48:04;27.63;;;18.30;;
43248;SDS011;29216;51.248;6.808;2024-03-06T03:50:30;25.08;;;16.70;;
43248;SDS011;29216;51.248;6.808;2024-03-06T03:52:57;27.38;;;17.65;;
43248;SDS011;29216;51.248;6.808;2024-03-06T03:55:25;27.02;;;17.02;;
43248;SDS011;29216;51.248;6.808;2024-03-06T03:57:51;27.55;;;18.05;;
43248;SDS011;29216;51.248;6.808;2024-03-06T04:00:18;28.70;;;17.80;;
43248;SDS011;29216;51.248;6.808;2024-03-06T04:02:44;33.70;;;18.23;;
43248;SDS011;29216;51.248;6.808;2024-03-06T04:05:10;25.48;;;18.00;;
43248;SDS011;29216;51.248;6.808;2024-03-06T04:07:36;28.17;;;17.42;;
43248;SDS011;29216;51.248;6.808;2024-03-06T04:10:03;30.15;;;17.20;;
43248;SDS011;29216;51.248;6.808;2024-03-06T04:12:29;30.17;;;18.42;;
43248;SDS011;29216;51.248;6.808;2024-03-06T04:14:55;24.70;;;16.70;;
43248;SDS011;29216;51.248;6.808;2024-03-06T04:17:22;28.38;;;17.23;;
43248;SDS011;29216;51.248;6.808;2024-03-06T04:19:47;29.15;;;18.20;;
43248;SDS011;29216;51.248;6.808;2024-03-06T04:22:14;28.15;;;17.98;;
43248;SDS011;29216;51.248;6.808;2024-03-06T04:24:43;27.50;;;17.70;;
43248;SDS011;29216;51.248;6.808;2024-03-06T04:27:09;25.00;;;16.25;;
43248;SDS011;29216;51.248;6.808;2024-03-06T04:29:35;26.48;;;17.58;;
43248;SDS011;29216;51.248;6.808;2024-03-06T04:32:01;29.23;;;18.50;;
43248;SDS011;29216;51.248;6.808;2024-03-06T04:34:27;28.38;;;16.85;;
43248;SDS011;29216;51.248;6.808;2024-03-06T04:36:53;27.63;;;17.10;;
43248;SDS011;29216;51.248;6.808;2024-03-06T04:39:19;29.25;;;18.10;;
43248;SDS011;29216;51.248;6.808;2024-03-06T04:41:45;26.05;;;16.50;;
43248;SDS011;29216;51.248;6.808;2024-03-06T04:44:11;26.50;;;17.30;;
43248;SDS011;29216;51.248;6.808;2024-03-06T04:46:37;32.08;;;17.85;;
43248;SDS011;29216;51.248;6.808;2024-03-06T04:49:03;28.48;;;18.50;;
43248;SDS011;29216;51.248;6.808;2024-03-06T04:51:29;30.00;;;18.42;;
43248;SDS011;29216;51.248;6.808;2024-03-06T04:53:55;32.78;;;18.80;;
43248;SDS011;29216;51.248;6.808;2024-03-06T04:56:21;37.83;;;19.00;;
43248;SDS011;29216;51.248;6.808;2024-03-06T04:58:47;34.08;;;18.83;;
43248;SDS011;29216;51.248;6.808;2024-03-06T05:01:13;31.67;;;19.02;;
43248;SDS011;29216;51.248;6.808;2024-03-06T05:03:39;30.40;;;18.17;;
43248;SDS011;29216;51.248;6.808;2024-03-06T05:06:05;27.33;;;17.48;;
43248;SDS011;29216;51.248;6.808;2024-03-06T05:08:31;30.15;;;18.55;;
43248;SDS011;29216;51.248;6.808;2024-03-06T05:11:01;29.90;;;17.98;;
43248;SDS011;29216;51.248;6.808;2024-03-06T05:13:27;29.95;;;18.90;;
43248;SDS011;29216;51.248;6.808;2024-03-06T05:15:53;31.27;;;18.67;;
43248;SDS011;29216;51.248;6.808;2024-03-06T05:18:19;31.95;;;18.83;;
43248;SDS011;29216;51.248;6.808;2024-03-06T05:20:46;30.23;;;18.92;;
43248;SDS011;29216;51.248;6.808;2024-03-06T05:23:12;29.85;;;17.70;;
43248;SDS011;29216;51.248;6.808;2024-03-06T05:25:39;33.53;;;18.50;;
43248;SDS011;29216;51.248;6.808;2024-03-06T05:28:06;35.83;;;19.92;;
43248;SDS011;29216;51.248;6.808;2024-03-06T05:30:32;37.67;;;21.33;;
43248;SDS011;29216;51.248;6.808;2024-03-06T05:32:58;32.88;;;18.48;;
43248;SDS011;29216;51.248;6.808;2024-03-06T05:35:24;34.88;;;20.75;;
43248;SDS011;29216;51.248;6.808;2024-03-06T05:37:50;30.77;;;19.23;;
43248;SDS011;29216;51.248;6.808;2024-03-06T05:40:16;28.13;;;18.70;;
43248;SDS011;29216;51.248;6.808;2024-03-06T05:42:42;36.33;;;19.08;;
43248;SDS011;29216;51.248;6.808;2024-03-06T05:45:08;29.02;;;18.80;;
43248;SDS011;29216;51.248;6.808;2024-03-06T05:47:37;30.40;;;19.30;;
43248;SDS011;29216;51.248;6.808;2024-03-06T05:50:03;31.20;;;18.80;;
43248;SDS011;29216;51.248;6.808;2024-03-06T05:52:30;33.60;;;19.92;;
43248;SDS011;29216;51.248;6.808;2024-03-06T05:54:56;30.02;;;19.23;;
43248;SDS011;29216;51.248;6.808;2024-03-06T05:57:22;34.10;;;20.27;;
43248;SDS011;29216;51.248;6.808;2024-03-06T05:59:48;35.38;;;21.20;;
43248;SDS011;29216;51.248;6.808;2024-03-06T06:02:14;32.75;;;20.50;;
43248;SDS011;29216;51.248;6.808;2024-03-06T06:04:41;39.40;;;22.70;;
43248;SDS011;29216;51.248;6.808;2024-03-06T06:07:07;37.05;;;21.50;;
43248;SDS011;29216;51.248;6.808;2024-03-06T06:09:33;37.80;;;21.98;;
43248;SDS011;29216;51.248;6.808;2024-03-06T06:11:59;36.03;;;21.35;;
43248;SDS011;29216;51.248;6.808;2024-03-06T06:14:25;37.10;;;23.67;;
43248;SDS011;29216;51.248;6.808;2024-03-06T06:16:55;39.22;;;22.55;;
43248;SDS011;29216;51.248;6.808;2024-03-06T06:19:21;39.75;;;21.88;;
43248;SDS011;29216;51.248;6.808;2024-03-06T06:21:47;37.15;;;21.35;;
43248;SDS011;29216;51.248;6.808;2024-03-06T06:24:13;35.30;;;20.77;;
43248;SDS011;29216;51.248;6.808;2024-03-06T06:26:39;36.00;;;21.67;;
43248;SDS011;29216;51.248;6.808;2024-03-06T06:29:07;37.10;;;23.08;;
43248;SDS011;29216;51.248;6.808;2024-03-06T06:31:33;37.85;;;21.27;;
43248;SDS011;29216;51.248;6.808;2024-03-06T06:33:59;35.28;;;21.45;;
43248;SDS011;29216;51.248;6.808;2024-03-06T06:36:25;36.53;;;21.90;;
43248;SDS011;29216;51.248;6.808;2024-03-06T06:38:53;31.27;;;20.90;;
43248;SDS011;29216;51.248;6.808;2024-03-06T06:41:19;34.92;;;20.38;;
43248;SDS011;29216;51.248;6.808;2024-03-06T06:43:45;35.50;;;22.45;;
43248;SDS011;29216;51.248;6.808;2024-03-06T06:46:11;32.42;;;21.67;;
43248;SDS011;29216;51.248;6.808;2024-03-06T06:48:37;33.58;;;21.10;;
43248;SDS011;29216;51.248;6.808;2024-03-06T06:51:03;36.20;;;22.15;;
43248;SDS011;29216;51.248;6.808;2024-03-06T06:53:30;40.47;;;22.88;;
43248;SDS011;29216;51.248;6.808;2024-03-06T06:55:56;39.08;;;23.35;;
43248;SDS011;29216;51.248;6.808;2024-03-06T06:58:22;38.92;;;22.95;;
43248;SDS011;29216;51.248;6.808;2024-03-06T07:00:48;34.78;;;21.45;;
43248;SDS011;29216;51.248;6.808;2024-03-06T07:03:14;35.33;;;22.15;;
43248;SDS011;29216;51.248;6.808;2024-03-06T07:05:40;34.25;;;20.92;;
43248;SDS011;29216;51.248;6.808;2024-03-06T07:08:07;35.80;;;21.98;;
43248;SDS011;29216;51.248;6.808;2024-03-06T07:10:33;35.83;;;21.13;;
43248;SDS011;29216;51.248;6.808;2024-03-06T07:13:01;38.72;;;21.55;;
43248;SDS011;29216;51.248;6.808;2024-03-06T07:15:27;35.22;;;20.48;;
43248;SDS011;29216;51.248;6.808;2024-03-06T07:17:54;31.80;;;20.33;;
43248;SDS011;29216;51.248;6.808;2024-03-06T07:20:19;32.47;;;19.50;;
43248;SDS011;29216;51.248;6.808;2024-03-06T07:22:45;32.60;;;20.67;;
43248;SDS011;29216;51.248;6.808;2024-03-06T07:25:12;34.28;;;20.85;;
43248;SDS011;29216;51.248;6.808;2024-03-06T07:27:38;31.63;;;20.65;;
43248;SDS011;29216;51.248;6.808;2024-03-06T07:30:04;35.50;;;20.85;;
43248;SDS011;29216;51.248;6.808;2024-03-06T07:32:32;40.35;;;22.23;;
43248;SDS011;29216;51.248;6.808;2024-03-06T07:34:58;42.63;;;22.67;;
43248;SDS011;29216;51.248;6.808;2024-03-06T07:37:23;41.80;;;23.23;;
43248;SDS011;29216;51.248;6.808;2024-03-06T07:39:49;48.95;;;25.13;;
43248;SDS011;29216;51.248;6.808;2024-03-06T07:42:15;41.80;;;24.27;;
43248;SDS011;29216;51.248;6.808;2024-03-06T07:44:43;39.83;;;23.63;;
43248;SDS011;29216;51.248;6.808;2024-03-06T07:47:09;43.33;;;25.42;;
43248;SDS011;29216;51.248;6.808;2024-03-06T07:49:35;40.65;;;24.65;;
43248;SDS011;29216;51.248;6.808;2024-03-06T07:52:01;44.85;;;25.85;;
43248;SDS011;29216;51.248;6.808;2024-03-06T07:54:27;44.40;;;22.60;;
43248;SDS011;29216;51.248;6.808;2024-03-06T07:56:53;41.53;;;24.92;;
43248;SDS011;29216;51.248;6.808;2024-03-06T07:59:19;46.80;;;24.42;;
43248;SDS011;29216;51.248;6.808;2024-03-06T08:01:45;46.72;;;26.00;;
43248;SDS011;29216;51.248;6.808;2024-03-06T08:04:11;43.80;;;24.75;;
43248;SDS011;29216;51.248;6.808;2024-03-06T08:06:38;45.83;;;25.05;;
43248;SDS011;29216;51.248;6.808;2024-03-06T08:09:04;45.22;;;24.52;;
43248;SDS011;29216;51.248;6.808;2024-03-06T08:11:32;46.95;;;27.10;;
43248;SDS011;29216;51.248;6.808;2024-03-06T08:13:59;48.05;;;26.88;;
43248;SDS011;29216;51.248;6.808;2024-03-06T08:16:26;46.67;;;27.00;;
43248;SDS011;29216;51.248;6.808;2024-03-06T08:18:52;46.53;;;26.23;;
43248;SDS011;29216;51.248;6.808;2024-03-06T08:21:18;48.28;;;26.20;;
43248;SDS011;29216;51.248;6.808;2024-03-06T08:23:47;44.65;;;26.23;;
43248;SDS011;29216;51.248;6.808;2024-03-06T08:26:14;49.60;;;26.63;;
43248;SDS011;29216;51.248;6.808;2024-03-06T08:28:40;47.40;;;26.45;;
43248;SDS011;29216;51.248;6.808;2024-03-06T08:31:06;50.63;;;26.52;;
43248;SDS011;29216;51.248;6.808;2024-03-06T08:33:33;51.63;;;27.05;;
43248;SDS011;29216;51.248;6.808;2024-03-06T08:35:59;44.40;;;25.45;;
43248;SDS011;29216;51.248;6.808;2024-03-06T08:38:25;46.90;;;25.90;;
43248;SDS011;29216;51.248;6.808;2024-03-06T08:40:51;46.28;;;24.98;;
43248;SDS011;29216;51.248;6.808;2024-03-06T08:43:17;54.25;;;27.55;;
43248;SDS011;29216;51.248;6.808;2024-03-06T08:45:44;47.67;;;26.40;;
43248;SDS011;29216;51.248;6.808;2024-03-06T08:48:10;44.03;;;25.58;;
43248;SDS011;29216;51.248;6.808;2024-03-06T08:53:04;47.80;;;25.25;;
43248;SDS011;29216;51.248;6.808;2024-03-06T08:55:30;40.92;;;22.13;;
43248;SDS011;29216;51.248;6.808;2024-03-06T08:57:56;39.15;;;22.80;;
43248;SDS011;29216;51.248;6.808;2024-03-06T09:00:23;42.63;;;23.90;;
43248;SDS011;29216;51.248;6.808;2024-03-06T09:02:51;38.90;;;23.15;;
43248;SDS011;29216;51.248;6.808;2024-03-06T09:05:18;38.58;;;22.52;;
43248;SDS011;29216;51.248;6.808;2024-03-06T09:07:45;39.00;;;22.30;;
43248;SDS011;29216;51.248;6.808;2024-03-06T09:10:11;38.22;;;21.75;;
43248;SDS011;29216;51.248;6.808;2024-03-06T09:12:38;36.15;;;20.38;;
43248;SDS011;29216;51.248;6.808;2024-03-06T09:15:04;37.40;;;20.90;;
43248;SDS011;29216;51.248;6.808;2024-03-06T09:17:32;34.05;;;21.00;;
43248;SDS011;29216;51.248;6.808;2024-03-06T09:19:58;36.35;;;21.13;;
43248;SDS011;29216;51.248;6.808;2024-03-06T09:22:24;33.78;;;20.73;;
43248;SDS011;29216;51.248;6.808;2024-03-06T09:24:50;31.73;;;20.17;;
43248;SDS011;29216;51.248;6.808;2024-03-06T09:27:16;31.27;;;19.60;;
43248;SDS011;29216;51.248;6.808;2024-03-06T09:29:42;27.63;;;18.85;;
43248;SDS011;29216;51.248;6.808;2024-03-06T09:32:09;28.52;;;18.55;;
43248;SDS011;29216;51.248;6.808;2024-03-06T09:34:37;30.67;;;18.98;;
43248;SDS011;29216;51.248;6.808;2024-03-06T09:37:03;28.30;;;17.75;;
43248;SDS011;29216;51.248;6.808;2024-03-06T09:39:30;29.10;;;18.58;;
43248;SDS011;29216;51.248;6.808;2024-03-06T09:41:56;29.42;;;18.77;;
43248;SDS011;29216;51.248;6.808;2024-03-06T09:44:22;29.48;;;18.92;;
43248;SDS011;29216;51.248;6.808;2024-03-06T09:46:48;30.48;;;19.55;;
43248;SDS011;29216;51.248;6.808;2024-03-06T09:49:15;27.58;;;18.10;;
43248;SDS011;29216;51.248;6.808;2024-03-06T09:51:43;27.50;;;17.60;;
43248;SDS011;29216;51.248;6.808;2024-03-06T09:54:15;31.63;;;18.85;;
43248;SDS011;29216;51.248;6.808;2024-03-06T09:56:44;28.65;;;18.27;;
43248;SDS011;29216;51.248;6.808;2024-03-06T09:59:12;28.27;;;18.52;;
43248;SDS011;29216;51.248;6.808;2024-03-06T10:01:50;30.05;;;19.33;;
43248;SDS011;29216;51.248;6.808;2024-03-06T10:04:25;34.42;;;22.65;;
43248;SDS011;29216;51.248;6.808;2024-03-06T10:06:58;35.63;;;20.60;;
43248;SDS011;29216;51.248;6.808;2024-03-06T10:09:24;32.42;;;19.83;;
43248;SDS011;29216;51.248;6.808;2024-03-06T10:11:50;33.45;;;19.90;;
43248;SDS011;29216;51.248;6.808;2024-03-06T10:14:21;32.90;;;20.40;;
43248;SDS011;29216;51.248;6.808;2024-03-06T10:16:54;34.10;;;21.10;;
43248;SDS011;29216;51.248;6.808;2024-03-06T10:19:27;40.80;;;22.58;;
43248;SDS011;29216;51.248;6.808;2024-03-06T10:21:54;35.22;;;23.35;;
43248;SDS011;29216;51.248;6.808;2024-03-06T10:24:23;35.10;;;22.90;;
43248;SDS011;29216;51.248;6.808;2024-03-06T10:26:50;40.17;;;24.13;;
43248;SDS011;29216;51.248;6.808;2024-03-06T10:29:19;46.95;;;26.42;;
43248;SDS011;29216;51.248;6.808;2024-03-06T10:34:14;42.90;;;26.40;;
43248;SDS011;29216;51.248;6.808;2024-03-06T10:36:40;44.13;;;28.02;;
43248;SDS011;29216;51.248;6.808;2024-03-06T10:39:06;44.90;;;26.75;;
43248;SDS011;29216;51.248;6.808;2024-03-06T10:41:33;43.03;;;26.88;;
43248;SDS011;29216;51.248;6.808;2024-03-06T10:44:00;45.60;;;27.63;;
43248;SDS011;29216;51.248;6.808;2024-03-06T10:46:27;47.03;;;28.95;;
43248;SDS011;29216;51.248;6.808;2024-03-06T10:48:53;50.90;;;30.40;;
43248;SDS011;29216;51.248;6.808;2024-03-06T10:51:23;51.05;;;29.70;;
43248;SDS011;29216;51.248;6.808;2024-03-06T10:53:50;48.13;;;28.95;;
43248;SDS011;29216;51.248;6.808;2024-03-06T10:56:17;49.15;;;29.05;;
43248;SDS011;29216;51.248;6.808;2024-03-06T10:58:44;45.65;;;28.55;;
43248;SDS011;29216;51.248;6.808;2024-03-06T11:01:12;55.95;;;30.98;;
43248;SDS011;29216;51.248;6.808;2024-03-06T11:03:38;44.38;;;27.88;;
43248;SDS011;29216;51.248;6.808;2024-03-06T11:06:04;43.58;;;27.02;;
43248;SDS011;29216;51.248;6.808;2024-03-06T11:08:32;46.50;;;27.35;;
43248;SDS011;29216;51.248;6.808;2024-03-06T11:11:18;46.33;;;29.60;;
43248;SDS011;29216;51.248;6.808;2024-03-06T11:13:45;41.40;;;27.52;;
43248;SDS011;29216;51.248;6.808;2024-03-06T11:16:12;46.97;;;27.50;;
43248;SDS011;29216;51.248;6.808;2024-03-06T11:23:30;46.38;;;28.00;;
43248;SDS011;29216;51.248;6.808;2024-03-06T11:25:59;47.15;;;28.17;;
43248;SDS011;29216;51.248;6.808;2024-03-06T11:28:37;46.28;;;27.27;;
43248;SDS011;29216;51.248;6.808;2024-03-06T11:31:06;48.08;;;29.50;;
43248;SDS011;29216;51.248;6.808;2024-03-06T11:33:46;46.30;;;27.92;;
43248;SDS011;29216;51.248;6.808;2024-03-06T11:41:21;42.08;;;25.75;;
43248;SDS011;29216;51.248;6.808;2024-03-06T11:43:50;42.22;;;26.25;;
43248;SDS011;29216;51.248;6.808;2024-03-06T11:46:20;44.28;;;25.50;;
43248;SDS011;29216;51.248;6.808;2024-03-06T11:48:53;41.95;;;27.00;;
43248;SDS011;29216;51.248;6.808;2024-03-06T11:51:19;37.53;;;24.27;;
43248;SDS011;29216;51.248;6.808;2024-03-06T11:53:45;39.25;;;24.48;;
43248;SDS011;29216;51.248;6.808;2024-03-06T11:56:14;39.63;;;24.42;;
43248;SDS011;29216;51.248;6.808;2024-03-06T11:58:40;38.20;;;24.65;;
43248;SDS011;29216;51.248;6.808;2024-03-06T12:01:06;34.90;;;23.40;;
43248;SDS011;29216;51.248;6.808;2024-03-06T12:03:32;37.42;;;24.15;;
43248;SDS011;29216;51.248;6.808;2024-03-06T12:05:58;36.17;;;23.27;;
43248;SDS011;29216;51.248;6.808;2024-03-06T12:08:24;34.60;;;23.23;;
43248;SDS011;29216;51.248;6.808;2024-03-06T12:10:50;36.70;;;22.25;;
43248;SDS011;29216;51.248;6.808;2024-03-06T12:13:20;34.00;;;21.33;;
43248;SDS011;29216;51.248;6.808;2024-03-06T12:15:46;28.70;;;19.65;;
43248;SDS011;29216;51.248;6.808;2024-03-06T12:18:12;28.50;;;20.40;;
43248;SDS011;29216;51.248;6.808;2024-03-06T12:20:42;27.42;;;19.23;;
43248;SDS011;29216;51.248;6.808;2024-03-06T12:23:18;28.15;;;19.45;;
43248;SDS011;29216;51.248;6.808;2024-03-06T12:25:45;28.80;;;18.90;;
43248;SDS011;29216;51.248;6.808;2024-03-06T12:28:11;25.55;;;17.48;;
43248;SDS011;29216;51.248;6.808;2024-03-06T12:30:40;25.40;;;17.42;;
43248;SDS011;29216;51.248;6.808;2024-03-06T12:33:07;26.05;;;17.42;;
43248;SDS011;29216;51.248;6.808;2024-03-06T12:35:33;23.17;;;16.70;;
43248;SDS011;29216;51.248;6.808;2024-03-06T12:37:59;23.67;;;15.82;;
43248;SDS011;29216;51.248;6.808;2024-03-06T12:40:25;22.90;;;14.75;;
43248;SDS011;29216;51.248;6.808;2024-03-06T12:42:53;20.95;;;14.32;;
43248;SDS011;29216;51.248;6.808;2024-03-06T12:45:19;19.02;;;13.68;;
43248;SDS011;29216;51.248;6.808;2024-03-06T12:47:46;17.42;;;12.32;;
43248;SDS011;29216;51.248;6.808;2024-03-06T12:50:15;15.18;;;10.80;;
43248;SDS011;29216;51.248;6.808;2024-03-06T12:52:41;20.23;;;14.00;;
43248;SDS011;29216;51.248;6.808;2024-03-06T12:55:10;22.35;;;15.00;;
43248;SDS011;29216;51.248;6.808;2024-03-06T12:57:37;17.23;;;13.50;;
43248;SDS011;29216;51.248;6.808;2024-03-06T13:00:03;21.27;;;14.57;;
43248;SDS011;29216;51.248;6.808;2024-03-06T13:02:31;21.17;;;13.93;;
43248;SDS011;29216;51.248;6.808;2024-03-06T13:04:57;19.33;;;13.88;;
43248;SDS011;29216;51.248;6.808;2024-03-06T13:07:23;17.25;;;12.38;;
43248;SDS011;29216;51.248;6.808;2024-03-06T13:09:52;18.75;;;12.95;;
43248;SDS011;29216;51.248;6.808;2024-03-06T13:12:18;21.73;;;14.50;;
43248;SDS011;29216;51.248;6.808;2024-03-06T13:14:44;23.88;;;13.95;;
43248;SDS011;29216;51.248;6.808;2024-03-06T13:17:10;17.95;;;12.27;;
43248;SDS011;29216;51.248;6.808;2024-03-06T13:19:36;17.40;;;12.63;;
43248;SDS011;29216;51.248;6.808;2024-03-06T13:22:02;19.23;;;12.68;;
43248;SDS011;29216;51.248;6.808;2024-03-06T13:24:28;20.95;;;14.43;;
43248;SDS011;29216;51.248;6.808;2024-03-06T13:26:54;18.33;;;13.00;;
43248;SDS011;29216;51.248;6.808;2024-03-06T13:29:20;20.77;;;13.18;;
43248;SDS011;29216;51.248;6.808;2024-03-06T13:31:46;19.15;;;12.35;;
43248;SDS011;29216;51.248;6.808;2024-03-06T13:34:12;19.60;;;13.65;;
43248;SDS011;29216;51.248;6.808;2024-03-06T13:36:38;17.45;;;13.00;;
43248;SDS011;29216;51.248;6.808;2024-03-06T13:39:04;20.60;;;13.85;;
43248;SDS011;29216;51.248;6.808;2024-03-06T13:41:30;20.50;;;13.13;;
43248;SDS011;29216;51.248;6.808;2024-03-06T13:43:56;17.85;;;12.68;;
43248;SDS011;29216;51.248;6.808;2024-03-06T13:46:22;15.13;;;11.18;;
43248;SDS011;29216;51.248;6.808;2024-03-06T13:48:48;17.85;;;11.80;;
43248;SDS011;29216;51.248;6.808;2024-03-06T13:51:14;14.57;;;11.32;;
43248;SDS011;29216;51.248;6.808;2024-03-06T13:53:40;17.48;;;11.63;;
43248;SDS011;29216;51.248;6.808;2024-03-06T13:56:06;17.67;;;12.93;;
43248;SDS011;29216;51.248;6.808;2024-03-06T13:58:33;17.67;;;11.88;;
43248;SDS011;29216;51.248;6.808;2024-03-06T14:00:59;19.30;;;13.57;;
43248;SDS011;29216;51.248;6.808;2024-03-06T14:03:25;21.02;;;14.43;;
43248;SDS011;29216;51.248;6.808;2024-03-06T14:05:51;23.40;;;14.25;;
43248;SDS011;29216;51.248;6.808;2024-03-06T14:08:17;22.55;;;15.00;;
43248;SDS011;29216;51.248;6.808;2024-03-06T14:10:43;18.67;;;13.43;;
43248;SDS011;29216;51.248;6.808;2024-03-06T14:13:10;19.92;;;13.88;;
43248;SDS011;29216;51.248;6.808;2024-03-06T14:15:36;20.90;;;14.15;;
43248;SDS011;29216;51.248;6.808;2024-03-06T14:18:02;19.50;;;14.13;;
43248;SDS011;29216;51.248;6.808;2024-03-06T14:20:29;18.83;;;13.80;;
43248;SDS011;29216;51.248;6.808;2024-03-06T14:22:55;23.00;;;14.15;;
43248;SDS011;29216;51.248;6.808;2024-03-06T14:25:21;19.13;;;12.98;;
43248;SDS011;29216;51.248;6.808;2024-03-06T14:27:47;19.85;;;13.48;;
43248;SDS011;29216;51.248;6.808;2024-03-06T14:30:13;23.40;;;15.18;;
43248;SDS011;29216;51.248;6.808;2024-03-06T14:32:40;21.65;;;13.75;;